createdAt,value
2022-10-03T00:00:13.731Z,17.20
2022-10-03T00:03:08.849Z,17.10
2022-10-03T00:05:53.220Z,17.10
2022-10-03T00:08:35.997Z,17.20
2022-10-03T00:11:12.716Z,17.20
2022-10-03T00:13:50.670Z,17.10
2022-10-03T00:16:24.926Z,17.20
2022-10-03T00:19:02.895Z,17.30
2022-10-03T00:21:45.962Z,17.30
2022-10-03T00:24:29.356Z,17.40
2022-10-03T00:27:04.602Z,17.40
2022-10-03T00:29:43.619Z,17.50
2022-10-03T00:32:27.604Z,17.50
2022-10-03T00:35:08.172Z,17.50
2022-10-03T00:40:50.505Z,17.50
2022-10-03T00:47:04.674Z,17.50
2022-10-03T00:50:08.746Z,17.50
2022-10-03T00:53:11.125Z,17.40
2022-10-03T00:55:54.355Z,17.50
2022-10-03T00:58:42.395Z,17.50
2022-10-03T01:01:25.733Z,17.40
2022-10-03T01:04:08.342Z,17.40
2022-10-03T01:06:45.108Z,17.40
2022-10-03T01:09:36.337Z,17.40
2022-10-03T01:12:29.403Z,17.50
2022-10-03T01:15:11.658Z,17.50
2022-10-03T01:17:50.557Z,17.40
2022-10-03T01:20:28.319Z,17.20
2022-10-03T01:26:48.991Z,17.30
2022-10-03T01:29:41.648Z,17.30
2022-10-03T01:35:12.135Z,17.40
2022-10-03T01:37:49.225Z,17.30
2022-10-03T01:40:27.377Z,17.40
2022-10-03T01:43:14.032Z,17.40
2022-10-03T01:45:56.607Z,17.30
2022-10-03T01:48:35.377Z,17.40
2022-10-03T01:51:11.751Z,17.40
2022-10-03T01:56:53.215Z,17.40
2022-10-03T01:59:25.976Z,17.40
2022-10-03T02:04:54.743Z,17.50
2022-10-03T02:07:29.825Z,17.40
2022-10-03T02:10:28.134Z,17.40
2022-10-03T02:13:06.401Z,17.40
2022-10-03T02:15:46.397Z,17.30
2022-10-03T02:18:24.797Z,17.30
2022-10-03T02:20:59.568Z,17.40
2022-10-03T02:23:41.168Z,17.30
2022-10-03T02:26:45.165Z,17.20
2022-10-03T02:29:52.165Z,17.30
2022-10-03T02:32:58.477Z,17.20
2022-10-03T02:35:52.670Z,17.20
2022-10-03T02:38:39.723Z,17.20
2022-10-03T02:41:34.488Z,17.20
2022-10-03T02:44:38.645Z,17.20
2022-10-03T02:50:48.671Z,17.20
2022-10-03T02:53:56.657Z,17.10
2022-10-03T02:56:57.723Z,17.10
2022-10-03T03:00:08.562Z,17.10
2022-10-03T03:03:16.418Z,16.90
2022-10-03T03:09:23.569Z,16.60
2022-10-03T03:12:28.140Z,16.50
2022-10-03T03:15:55.372Z,16.40
2022-10-03T03:18:34.604Z,16.60
2022-10-03T03:21:30.817Z,16.60
2022-10-03T03:24:33.296Z,16.50
2022-10-03T03:27:37.924Z,16.30
2022-10-03T03:30:12.193Z,16.30
2022-10-03T03:32:58.036Z,16.40
2022-10-03T03:35:38.707Z,16.50
2022-10-03T03:38:18.716Z,16.60
2022-10-03T03:41:16.018Z,16.50
2022-10-03T03:44:06.846Z,16.50
2022-10-03T03:47:01.456Z,16.30
2022-10-03T03:49:43.849Z,16.30
2022-10-03T03:55:51.655Z,16.40
2022-10-03T03:58:33.685Z,16.30
2022-10-03T04:01:43.727Z,16.30
2022-10-03T04:04:40.646Z,16.00
2022-10-03T04:07:34.467Z,15.90
2022-10-03T04:10:18.507Z,15.90
2022-10-03T04:13:32.264Z,16.00
2022-10-03T04:16:45.736Z,16.10
2022-10-03T04:19:24.782Z,16.20
2022-10-03T04:22:21.035Z,16.00
2022-10-03T04:25:26.479Z,16.10
2022-10-03T04:28:54.709Z,16.10
2022-10-03T04:31:42.310Z,16.10
2022-10-03T04:34:27.940Z,16.00
2022-10-03T04:37:09.429Z,16.00
2022-10-03T04:39:46.344Z,16.00
2022-10-03T04:42:27.353Z,15.90
2022-10-03T04:45:12.607Z,15.80
2022-10-03T04:47:48.336Z,15.90
2022-10-03T04:50:40.566Z,15.80
2022-10-03T04:53:51.295Z,16.00
2022-10-03T04:59:47.332Z,15.80
2022-10-03T05:02:30.142Z,16.00
2022-10-03T05:05:21.011Z,16.00
2022-10-03T05:07:55.967Z,15.80
2022-10-03T05:10:41.687Z,15.80
2022-10-03T05:13:17.212Z,15.90
2022-10-03T05:16:07.461Z,15.80
2022-10-03T05:18:46.566Z,15.70
2022-10-03T05:21:17.542Z,15.90
2022-10-03T05:24:02.964Z,15.90
2022-10-03T05:26:46.080Z,15.80
2022-10-03T05:29:37.729Z,15.80
2022-10-03T05:32:17.975Z,15.90
2022-10-03T05:35:05.208Z,16.00
2022-10-03T05:38:01.218Z,15.90
2022-10-03T05:40:31.931Z,16.00
2022-10-03T05:43:29.501Z,16.10
2022-10-03T05:46:04.171Z,16.10
2022-10-03T05:48:43.647Z,16.20
2022-10-03T05:51:39.675Z,16.20
2022-10-03T05:58:05.422Z,16.20
2022-10-03T06:00:52.370Z,16.20
2022-10-03T06:04:05.045Z,16.20
2022-10-03T06:06:58.033Z,16.30
2022-10-03T06:10:05.101Z,16.50
2022-10-03T06:12:40.487Z,16.50
2022-10-03T06:15:33.829Z,16.50
2022-10-03T06:18:13.855Z,16.70
2022-10-03T06:21:06.210Z,16.80
2022-10-03T06:24:13.271Z,16.80
2022-10-03T06:27:04.673Z,16.90
2022-10-03T06:30:06.366Z,17.00
2022-10-03T06:33:26.862Z,17.10
2022-10-03T06:36:16.179Z,17.20
2022-10-03T06:39:32.950Z,17.20
2022-10-03T06:42:31.074Z,17.30
2022-10-03T06:45:41.642Z,17.40
2022-10-03T06:49:04.052Z,17.50
2022-10-03T06:52:29.357Z,17.60
2022-10-03T06:55:34.248Z,17.70
2022-10-03T06:58:43.473Z,17.80
2022-10-03T07:08:41.415Z,18.10
2022-10-03T07:11:44.705Z,18.10
2022-10-03T07:18:13.305Z,18.50
2022-10-03T07:21:33.156Z,18.40
2022-10-03T07:24:41.604Z,18.60
2022-10-03T07:27:25.661Z,18.60
2022-10-03T07:33:38.862Z,18.90
2022-10-03T07:36:49.690Z,19.10
2022-10-03T07:39:45.458Z,19.10
2022-10-03T07:42:47.584Z,19.20
2022-10-03T07:45:39.568Z,19.20
2022-10-03T07:48:43.704Z,19.30
2022-10-03T07:51:36.478Z,19.60
2022-10-03T07:54:35.696Z,19.70
2022-10-03T07:57:29.462Z,19.80
2022-10-03T08:00:24.507Z,19.80
2022-10-03T08:03:30.349Z,19.80
2022-10-03T08:06:23.893Z,19.90
2022-10-03T08:09:30.073Z,20.00
2022-10-03T08:12:35.042Z,20.20
2022-10-03T08:15:12.649Z,20.30
2022-10-03T08:18:29.098Z,20.20
2022-10-03T08:21:16.634Z,20.30
2022-10-03T08:24:16.207Z,20.40
2022-10-03T08:27:31.984Z,20.50
2022-10-03T08:30:25.791Z,20.40
2022-10-03T08:33:32.903Z,20.50
2022-10-03T08:36:43.258Z,20.60
2022-10-03T08:39:14.376Z,20.60
2022-10-03T08:42:15.194Z,20.80
2022-10-03T08:45:08.273Z,20.90
2022-10-03T08:48:11.143Z,20.90
2022-10-03T08:51:13.373Z,20.90
2022-10-03T08:54:08.616Z,21.00
2022-10-03T08:57:11.540Z,20.90
2022-10-03T09:00:20.244Z,21.00
2022-10-03T09:03:34.445Z,21.20
2022-10-03T09:07:05.465Z,21.30
2022-10-03T09:10:03.207Z,21.40
2022-10-03T09:13:29.860Z,21.60
2022-10-03T09:16:34.584Z,21.70
2022-10-03T09:19:36.184Z,21.60
2022-10-03T09:22:20.560Z,21.80
2022-10-03T09:25:48.618Z,21.70
2022-10-03T09:28:48.088Z,22.00
2022-10-03T09:31:29.817Z,22.10
2022-10-03T09:34:20.532Z,22.00
2022-10-03T09:37:25.341Z,22.10
2022-10-03T09:40:32.545Z,22.20
2022-10-03T09:43:36.732Z,22.40
2022-10-03T09:49:49.203Z,22.90
2022-10-03T09:52:47.043Z,22.30
2022-10-03T09:55:34.197Z,22.70
2022-10-03T09:58:29.613Z,22.70
2022-10-03T10:01:24.225Z,22.90
2022-10-03T10:07:50.564Z,22.40
2022-10-03T10:10:55.754Z,22.50
2022-10-03T10:14:13.017Z,22.90
2022-10-03T10:17:37.679Z,23.00
2022-10-03T10:20:31.957Z,23.20
2022-10-03T10:23:21.042Z,23.30
2022-10-03T10:26:15.623Z,23.20
2022-10-03T10:29:19.985Z,23.20
2022-10-03T10:32:37.221Z,23.60
2022-10-03T10:39:10.095Z,23.90
2022-10-03T10:42:20.205Z,24.00
2022-10-03T10:45:36.154Z,23.90
2022-10-03T10:48:41.895Z,24.30
2022-10-03T10:51:43.969Z,24.30
2022-10-03T10:54:49.163Z,24.10
2022-10-03T10:57:51.633Z,24.40
2022-10-03T11:00:54.905Z,24.80
2022-10-03T11:04:02.049Z,25.00
2022-10-03T11:07:13.510Z,24.70
2022-10-03T11:10:19.210Z,24.90
2022-10-03T11:13:35.445Z,25.40
2022-10-03T11:17:04.837Z,25.70
2022-10-03T11:20:38.278Z,26.40
2022-10-03T11:27:16.690Z,26.40
2022-10-03T11:30:17.569Z,26.40
2022-10-03T11:36:44.034Z,26.70
2022-10-03T11:39:19.693Z,27.30
2022-10-03T11:41:54.921Z,27.30
2022-10-03T11:44:29.497Z,27.00
2022-10-03T11:47:26.050Z,25.80
2022-10-03T11:50:16.105Z,25.90
2022-10-03T11:52:59.655Z,26.10
2022-10-03T11:55:35.246Z,25.70
2022-10-03T11:58:25.398Z,26.00
2022-10-03T12:01:04.849Z,26.80
2022-10-03T12:03:41.265Z,27.00
2022-10-03T12:06:33.212Z,26.10
2022-10-03T12:09:16.072Z,24.90
2022-10-03T12:11:53.862Z,26.40
2022-10-03T12:14:29.316Z,26.90
2022-10-03T12:17:06.950Z,27.50
2022-10-03T12:22:52.090Z,27.80
2022-10-03T12:25:27.535Z,28.20
2022-10-03T12:28:07.916Z,28.50
2022-10-03T12:30:50.964Z,28.70
2022-10-03T12:33:47.067Z,28.60
2022-10-03T12:36:19.267Z,27.80
2022-10-03T12:39:02.137Z,27.90
2022-10-03T12:41:55.409Z,26.50
2022-10-03T12:44:45.742Z,27.00
2022-10-03T12:48:01.326Z,26.50
2022-10-03T12:50:43.332Z,26.60
2022-10-03T12:53:32.592Z,27.90
2022-10-03T12:56:22.823Z,27.70
2022-10-03T12:58:58.708Z,28.30
2022-10-03T13:01:37.614Z,26.70
2022-10-03T13:04:19.963Z,26.80
2022-10-03T13:07:05.948Z,25.90
2022-10-03T13:10:06.102Z,26.70
2022-10-03T13:12:43.774Z,27.50
2022-10-03T13:15:42.001Z,27.80
2022-10-03T13:18:24.785Z,28.20
2022-10-03T13:21:43.920Z,28.80
2022-10-03T13:24:12.239Z,29.40
2022-10-03T13:26:57.972Z,29.70
2022-10-03T13:29:30.441Z,29.60
2022-10-03T13:32:17.268Z,29.90
2022-10-03T13:35:35.003Z,30.00
2022-10-03T13:38:47.264Z,29.90
2022-10-03T13:41:52.773Z,29.80
2022-10-03T13:44:28.401Z,29.10
2022-10-03T13:47:06.825Z,28.50
2022-10-03T13:49:44.874Z,25.40
2022-10-03T13:52:23.694Z,24.90
2022-10-03T13:55:10.571Z,26.10
2022-10-03T13:58:33.418Z,27.60
2022-10-03T14:01:21.857Z,28.00
2022-10-03T14:04:07.355Z,28.90
2022-10-03T14:06:41.672Z,29.30
2022-10-03T14:09:36.613Z,29.60
2022-10-03T14:12:15.826Z,29.50
2022-10-03T14:14:55.600Z,29.20
2022-10-03T14:17:31.917Z,29.30
2022-10-03T14:20:21.602Z,29.50
2022-10-03T14:23:23.413Z,29.40
2022-10-03T14:26:01.413Z,29.30
2022-10-03T14:28:39.732Z,29.10
2022-10-03T14:31:35.417Z,28.80
2022-10-03T14:34:15.195Z,28.60
2022-10-03T14:36:50.471Z,28.70
2022-10-03T14:39:46.722Z,28.80
2022-10-03T14:42:58.262Z,28.50
2022-10-03T14:48:22.261Z,26.60
2022-10-03T14:50:55.549Z,26.70
2022-10-03T14:53:29.950Z,27.50
2022-10-03T14:56:03.116Z,27.90
2022-10-03T15:01:29.006Z,27.80
2022-10-03T15:04:02.411Z,28.30
2022-10-03T15:06:56.475Z,28.10
2022-10-03T15:09:33.675Z,27.70
2022-10-03T15:15:02.649Z,27.10
2022-10-03T15:17:35.777Z,26.10
2022-10-03T15:20:07.545Z,25.60
2022-10-03T15:22:39.724Z,25.30
2022-10-03T15:28:05.194Z,25.30
2022-10-03T15:33:31.291Z,24.80
2022-10-03T15:39:03.950Z,24.50
2022-10-03T15:41:38.566Z,24.30
2022-10-03T15:44:15.339Z,24.10
2022-10-03T15:46:49.593Z,24.00
2022-10-03T15:49:22.924Z,23.90
2022-10-03T15:51:52.513Z,23.80
2022-10-03T15:54:23.893Z,23.70
2022-10-03T15:56:57.146Z,23.60
2022-10-03T15:59:32.306Z,23.50
2022-10-03T16:02:31.570Z,23.40
2022-10-03T16:05:01.537Z,23.30
2022-10-03T16:07:39.486Z,23.20
2022-10-03T16:10:20.564Z,23.10
2022-10-03T16:13:04.329Z,23.00
2022-10-03T16:15:53.729Z,22.90
2022-10-03T16:18:51.032Z,22.90
2022-10-03T16:21:47.074Z,22.90
2022-10-03T16:24:26.015Z,22.80
2022-10-03T16:27:00.012Z,22.80
2022-10-03T16:29:32.689Z,22.70
2022-10-03T16:32:07.302Z,22.60
2022-10-03T16:34:39.679Z,22.60
2022-10-03T16:37:29.998Z,22.50
2022-10-03T16:40:02.766Z,22.50
2022-10-03T16:42:44.030Z,22.50
2022-10-03T16:45:35.336Z,22.50
2022-10-03T16:48:28.829Z,22.40
2022-10-03T16:51:00.382Z,22.30
2022-10-03T16:53:29.842Z,22.30
2022-10-03T16:56:05.043Z,22.40
2022-10-03T16:58:54.875Z,22.50
2022-10-03T17:01:47.356Z,22.30
2022-10-03T17:04:39.435Z,22.20
2022-10-03T17:07:17.823Z,22.20
2022-10-03T17:09:48.566Z,22.10
2022-10-03T17:12:39.066Z,22.10
2022-10-03T17:15:10.684Z,22.00
2022-10-03T17:17:50.266Z,21.90
2022-10-03T17:20:23.843Z,22.00
2022-10-03T17:23:01.725Z,22.00
2022-10-03T17:25:42.883Z,22.00
2022-10-03T17:28:17.358Z,22.00
2022-10-03T17:30:51.207Z,22.10
2022-10-03T17:33:24.413Z,22.00
2022-10-03T17:36:03.387Z,21.90
2022-10-03T17:38:49.767Z,21.70
2022-10-03T17:41:23.627Z,21.70
2022-10-03T17:44:06.124Z,21.70
2022-10-03T17:46:41.480Z,21.60
2022-10-03T17:49:22.004Z,21.50
2022-10-03T17:54:41.902Z,21.60
2022-10-03T17:57:16.930Z,21.60
2022-10-03T17:59:51.853Z,21.40
2022-10-03T18:02:25.370Z,21.40
2022-10-03T18:05:01.757Z,21.30
2022-10-03T18:07:31.548Z,21.40
2022-10-03T18:10:02.095Z,21.40
2022-10-03T18:12:36.302Z,21.30
2022-10-03T18:15:39.524Z,21.30
2022-10-03T18:18:34.644Z,21.20
2022-10-03T18:21:07.590Z,21.00
2022-10-03T18:23:55.195Z,20.90
2022-10-03T18:26:29.846Z,21.00
2022-10-03T18:29:27.044Z,20.80
2022-10-03T18:32:00.435Z,20.70
2022-10-03T18:34:35.106Z,20.70
2022-10-03T18:37:18.084Z,20.50
2022-10-03T18:39:50.168Z,20.40
2022-10-03T18:42:27.936Z,20.60
2022-10-03T18:44:58.731Z,20.60
2022-10-03T18:47:32.428Z,20.50
2022-10-03T18:50:10.540Z,20.60
2022-10-03T18:52:46.651Z,20.60
2022-10-03T18:58:18.971Z,20.40
2022-10-03T19:00:55.398Z,20.40
2022-10-03T19:03:30.427Z,20.40
2022-10-03T19:06:04.081Z,20.40
2022-10-03T19:08:38.647Z,20.40
2022-10-03T19:11:18.081Z,20.30
2022-10-03T19:14:00.457Z,20.10
2022-10-03T19:16:46.669Z,20.20
2022-10-03T19:19:25.387Z,21.40
2022-10-03T19:21:55.238Z,20.00
2022-10-03T19:24:58.319Z,19.90
2022-10-03T19:27:41.768Z,19.70
2022-10-03T19:30:18.956Z,19.70
2022-10-03T19:32:55.939Z,19.60
2022-10-03T19:35:26.026Z,19.60
2022-10-03T19:38:00.101Z,19.60
2022-10-03T19:40:51.187Z,19.70
2022-10-03T19:43:45.634Z,19.80
2022-10-03T19:46:41.567Z,20.10
2022-10-03T19:49:30.947Z,20.10
2022-10-03T19:52:18.488Z,20.10
2022-10-03T19:54:51.988Z,20.20
2022-10-03T19:57:27.417Z,20.30
2022-10-03T20:03:16.278Z,20.30
2022-10-03T20:05:52.247Z,20.30
2022-10-03T20:08:34.957Z,20.20
2022-10-03T20:11:20.347Z,20.10
2022-10-03T20:13:51.107Z,20.00
2022-10-03T20:16:22.819Z,19.90
2022-10-03T20:18:58.115Z,20.00
2022-10-03T20:21:29.819Z,19.90
2022-10-03T20:23:59.693Z,19.90
2022-10-03T20:26:54.984Z,19.80
2022-10-03T20:29:35.114Z,19.80
2022-10-03T20:32:06.081Z,19.70
2022-10-03T20:34:42.509Z,19.50
2022-10-03T20:37:36.539Z,19.60
2022-10-03T20:40:18.761Z,19.50
2022-10-03T20:42:49.631Z,19.50
2022-10-03T20:45:23.560Z,19.40
2022-10-03T20:48:02.495Z,19.50
2022-10-03T20:50:36.440Z,19.60
2022-10-03T20:53:12.486Z,19.70
2022-10-03T20:55:48.373Z,19.50
2022-10-03T20:58:30.726Z,19.40
2022-10-03T21:01:03.609Z,19.40
2022-10-03T21:03:39.249Z,19.40
2022-10-03T21:11:55.804Z,19.10
2022-10-03T21:14:46.748Z,19.00
2022-10-03T21:17:17.617Z,19.00
2022-10-03T21:19:52.035Z,18.80
2022-10-03T21:22:42.686Z,18.90
2022-10-03T21:25:33.396Z,18.90
2022-10-03T21:28:03.850Z,19.00
2022-10-03T21:30:56.645Z,18.80
2022-10-03T21:33:32.096Z,18.70
2022-10-03T21:36:10.106Z,18.80
2022-10-03T21:39:12.613Z,18.90
2022-10-03T21:41:49.256Z,18.90
2022-10-03T21:44:32.836Z,18.90
2022-10-03T21:47:11.439Z,19.00
2022-10-03T21:49:50.037Z,19.00
2022-10-03T21:52:32.687Z,19.00
2022-10-03T21:55:17.375Z,18.80
2022-10-03T21:58:01.107Z,18.70
2022-10-03T22:00:31.591Z,18.80
2022-10-03T22:03:07.830Z,18.80
2022-10-03T22:05:44.441Z,18.80
2022-10-03T22:08:23.305Z,18.70
2022-10-03T22:11:05.707Z,18.50
2022-10-03T22:13:38.866Z,18.50
2022-10-03T22:16:15.504Z,18.50
2022-10-03T22:19:04.380Z,18.80
2022-10-03T22:21:42.439Z,18.70
2022-10-03T22:24:19.229Z,18.60
2022-10-03T22:26:53.194Z,18.70
2022-10-03T22:29:36.464Z,18.50
2022-10-03T22:32:11.505Z,18.40
2022-10-03T22:34:53.077Z,18.30
2022-10-03T22:37:22.515Z,18.30
2022-10-03T22:39:51.866Z,18.30
2022-10-03T22:42:22.646Z,18.40
2022-10-03T22:44:55.027Z,18.50
2022-10-03T22:47:26.469Z,18.70
2022-10-03T22:49:59.165Z,18.70
2022-10-03T22:52:32.935Z,18.60
2022-10-03T22:55:03.804Z,18.70
2022-10-03T22:57:36.030Z,18.70
2022-10-03T23:00:09.072Z,18.60
2022-10-03T23:02:43.576Z,18.60
2022-10-03T23:05:17.453Z,18.60
2022-10-03T23:08:02.497Z,18.60
2022-10-03T23:13:39.057Z,18.60
2022-10-03T23:16:18.192Z,18.60
2022-10-03T23:19:09.709Z,18.40
2022-10-03T23:21:46.355Z,18.60
2022-10-03T23:24:25.420Z,18.40
2022-10-03T23:27:23.765Z,18.40
2022-10-03T23:30:51.230Z,18.30
2022-10-03T23:33:51.278Z,18.30
2022-10-03T23:36:24.065Z,18.50
2022-10-03T23:39:03.216Z,18.20
2022-10-03T23:47:42.936Z,18.10
2022-10-03T23:50:37.218Z,18.20
2022-10-03T23:53:06.772Z,18.10
2022-10-03T23:55:39.907Z,18.00
2022-10-03T23:58:23.536Z,17.90
